createdAt,value
2023-02-02T00:00:09.761Z,958.96
2023-02-02T00:00:20.809Z,958.98
2023-02-02T00:00:31.775Z,959.03
2023-02-02T00:00:42.554Z,958.95
2023-02-02T00:00:53.599Z,958.99
2023-02-02T00:01:04.567Z,958.95
2023-02-02T00:01:15.339Z,958.91
2023-02-02T00:01:26.382Z,958.88
2023-02-02T00:01:37.360Z,958.87
2023-02-02T00:01:48.135Z,958.94
2023-02-02T00:01:59.172Z,958.96
2023-02-02T00:02:10.135Z,958.93
2023-02-02T00:02:20.991Z,958.91
2023-02-02T00:02:32.004Z,958.92
2023-02-02T00:02:42.985Z,958.88
2023-02-02T00:02:53.796Z,958.86
2023-02-02T00:03:04.823Z,958.89
2023-02-02T00:03:15.762Z,958.94
2023-02-02T00:03:26.535Z,958.94
2023-02-02T00:03:37.676Z,958.95
2023-02-02T00:03:48.170Z,959.01
2023-02-02T00:03:59.034Z,959.05
2023-02-02T00:04:09.585Z,959.09
2023-02-02T00:04:20.525Z,959.02
2023-02-02T00:04:31.301Z,958.98
2023-02-02T00:04:42.353Z,958.98
2023-02-02T00:04:53.331Z,959.04
2023-02-02T00:05:04.101Z,958.97
2023-02-02T00:05:15.150Z,958.95
2023-02-02T00:05:26.283Z,958.98
2023-02-02T00:05:37.000Z,959.01
2023-02-02T00:05:48.048Z,958.99
2023-02-02T00:05:59.022Z,958.87
2023-02-02T00:06:09.792Z,958.93
2023-02-02T00:06:20.853Z,959.04
2023-02-02T00:06:31.811Z,959.07
2023-02-02T00:06:42.576Z,958.96
2023-02-02T00:06:53.625Z,958.95
2023-02-02T00:07:04.591Z,958.99
2023-02-02T00:07:15.356Z,959.08
2023-02-02T00:07:26.418Z,959.13
2023-02-02T00:07:37.382Z,959.14
2023-02-02T00:07:48.156Z,959.07
2023-02-02T00:07:59.204Z,959.02
2023-02-02T00:08:10.176Z,959.01
2023-02-02T00:08:20.939Z,959.02
2023-02-02T00:08:31.987Z,959.09
2023-02-02T00:08:42.964Z,959.12
2023-02-02T00:08:53.722Z,959.11
2023-02-02T00:09:04.772Z,959.12
2023-02-02T00:09:15.739Z,959.11
2023-02-02T00:09:26.504Z,959.09
2023-02-02T00:09:37.554Z,959.07
2023-02-02T00:09:48.516Z,959.12
2023-02-02T00:09:59.284Z,959.13
2023-02-02T00:10:10.334Z,959.12
2023-02-02T00:10:21.303Z,959.01
2023-02-02T00:10:32.069Z,959.02
2023-02-02T00:10:43.151Z,959.06
2023-02-02T00:10:54.099Z,959.11
2023-02-02T00:11:04.849Z,959.02
2023-02-02T00:11:15.900Z,958.99
2023-02-02T00:11:26.873Z,958.97
2023-02-02T00:11:37.632Z,958.99
2023-02-02T00:11:48.744Z,958.92
2023-02-02T00:11:59.655Z,958.83
2023-02-02T00:12:10.432Z,958.81
2023-02-02T00:12:21.475Z,958.81
2023-02-02T00:12:32.452Z,958.86
2023-02-02T00:12:43.222Z,958.96
2023-02-02T00:12:54.265Z,959.02
2023-02-02T00:13:05.238Z,958.99
2023-02-02T00:13:16.004Z,958.93
2023-02-02T00:13:27.050Z,958.99
2023-02-02T00:13:38.019Z,958.99
2023-02-02T00:13:48.785Z,959.01
2023-02-02T00:13:59.830Z,958.98
2023-02-02T00:14:10.803Z,958.85
2023-02-02T00:14:21.562Z,958.87
2023-02-02T00:14:32.610Z,958.85
2023-02-02T00:14:43.587Z,958.81
2023-02-02T00:14:54.347Z,958.92
2023-02-02T00:15:05.396Z,959.01
2023-02-02T00:15:16.369Z,959.03
2023-02-02T00:15:27.138Z,959.04
2023-02-02T00:15:38.180Z,959.05
2023-02-02T00:15:49.336Z,959.06
2023-02-02T00:16:00.176Z,959.05
2023-02-02T00:16:10.727Z,959.01
2023-02-02T00:16:21.743Z,958.99
2023-02-02T00:16:32.498Z,958.94
2023-02-02T00:16:43.511Z,958.99
2023-02-02T00:16:54.479Z,958.91
2023-02-02T00:17:05.235Z,958.84
2023-02-02T00:17:16.281Z,958.90
2023-02-02T00:17:27.251Z,958.77
2023-02-02T00:17:38.022Z,958.74
2023-02-02T00:17:49.069Z,958.71
2023-02-02T00:18:00.044Z,958.77
2023-02-02T00:18:10.812Z,958.79
2023-02-02T00:18:21.857Z,958.63
2023-02-02T00:18:32.824Z,958.70
2023-02-02T00:18:43.593Z,958.78
2023-02-02T00:18:54.649Z,958.78
2023-02-02T00:19:05.632Z,958.76
2023-02-02T00:19:16.397Z,958.85
2023-02-02T00:19:27.439Z,958.80
2023-02-02T00:19:38.412Z,958.79
2023-02-02T00:19:49.182Z,958.82
2023-02-02T00:20:00.231Z,958.87
2023-02-02T00:20:11.204Z,958.88
2023-02-02T00:20:21.967Z,958.93
2023-02-02T00:20:33.014Z,958.91
2023-02-02T00:20:43.981Z,958.93
2023-02-02T00:20:54.747Z,958.92
2023-02-02T00:21:05.802Z,958.91
2023-02-02T00:21:16.763Z,958.94
2023-02-02T00:21:27.534Z,958.87
2023-02-02T00:21:38.587Z,958.89
2023-02-02T00:21:49.582Z,958.88
2023-02-02T00:22:00.356Z,958.80
2023-02-02T00:22:11.394Z,958.73
2023-02-02T00:22:22.361Z,958.66
2023-02-02T00:22:33.129Z,958.77
2023-02-02T00:22:44.188Z,958.85
2023-02-02T00:22:55.153Z,958.89
2023-02-02T00:23:05.942Z,958.92
2023-02-02T00:23:16.991Z,958.94
2023-02-02T00:23:27.954Z,958.94
2023-02-02T00:23:38.741Z,958.95
2023-02-02T00:23:49.793Z,958.87
2023-02-02T00:24:00.750Z,958.92
2023-02-02T00:24:11.520Z,958.94
2023-02-02T00:24:22.570Z,958.95
2023-02-02T00:24:33.526Z,958.94
2023-02-02T00:24:44.291Z,958.91
2023-02-02T00:24:55.341Z,958.87
2023-02-02T00:25:06.304Z,958.85
2023-02-02T00:25:17.071Z,958.89
2023-02-02T00:25:28.118Z,958.90
2023-02-02T00:25:39.087Z,958.92
2023-02-02T00:25:49.853Z,958.97
2023-02-02T00:26:00.915Z,958.98
2023-02-02T00:26:11.863Z,958.96
2023-02-02T00:26:22.654Z,958.91
2023-02-02T00:26:33.718Z,958.89
2023-02-02T00:26:44.658Z,958.91
2023-02-02T00:26:55.410Z,958.89
2023-02-02T00:27:06.453Z,958.84
2023-02-02T00:27:17.432Z,958.81
2023-02-02T00:27:28.186Z,958.87
2023-02-02T00:27:39.244Z,958.90
2023-02-02T00:27:50.216Z,958.81
2023-02-02T00:28:00.989Z,958.85
2023-02-02T00:28:12.037Z,958.76
2023-02-02T00:28:23.025Z,958.69
2023-02-02T00:28:33.796Z,958.75
2023-02-02T00:28:44.839Z,958.82
2023-02-02T00:28:55.806Z,958.85
2023-02-02T00:29:06.577Z,958.88
2023-02-02T00:29:17.647Z,958.93
2023-02-02T00:29:28.604Z,958.93
2023-02-02T00:29:39.386Z,958.95
2023-02-02T00:29:50.452Z,958.92
2023-02-02T00:30:01.415Z,958.90
2023-02-02T00:30:12.177Z,958.92
2023-02-02T00:30:23.265Z,958.94
2023-02-02T00:30:34.203Z,958.93
2023-02-02T00:30:44.975Z,958.93
2023-02-02T00:30:56.019Z,958.95
2023-02-02T00:31:06.985Z,958.89
2023-02-02T00:31:17.841Z,958.92
2023-02-02T00:31:28.336Z,958.91
2023-02-02T00:31:39.347Z,958.92
2023-02-02T00:31:50.114Z,958.91
2023-02-02T00:32:01.124Z,958.96
2023-02-02T00:32:12.095Z,959.06
2023-02-02T00:32:22.856Z,958.95
2023-02-02T00:32:33.906Z,958.83
2023-02-02T00:32:44.871Z,958.83
2023-02-02T00:32:55.652Z,958.84
2023-02-02T00:33:06.716Z,958.87
2023-02-02T00:33:17.712Z,958.90
2023-02-02T00:33:28.482Z,958.90
2023-02-02T00:33:39.539Z,958.83
2023-02-02T00:33:50.507Z,958.83
2023-02-02T00:34:01.281Z,958.76
2023-02-02T00:34:12.317Z,958.76
2023-02-02T00:34:23.287Z,958.85
2023-02-02T00:34:34.060Z,958.82
2023-02-02T00:34:45.117Z,958.83
2023-02-02T00:34:56.083Z,958.82
2023-02-02T00:35:06.858Z,958.81
2023-02-02T00:35:17.896Z,958.79
2023-02-02T00:35:28.874Z,958.85
2023-02-02T00:35:39.655Z,958.90
2023-02-02T00:35:50.698Z,958.95
2023-02-02T00:36:01.664Z,958.87
2023-02-02T00:36:12.428Z,958.92
2023-02-02T00:36:23.473Z,958.95
2023-02-02T00:36:34.447Z,958.95
2023-02-02T00:36:45.208Z,958.88
2023-02-02T00:36:56.274Z,958.84
2023-02-02T00:37:07.232Z,958.89
2023-02-02T00:37:17.991Z,958.91
2023-02-02T00:37:29.044Z,958.92
2023-02-02T00:37:40.068Z,958.91
2023-02-02T00:37:50.833Z,958.91
2023-02-02T00:38:01.895Z,958.93
2023-02-02T00:38:12.886Z,958.89
2023-02-02T00:38:23.654Z,958.88
2023-02-02T00:38:34.713Z,958.88
2023-02-02T00:38:45.680Z,958.90
2023-02-02T00:38:56.460Z,958.95
2023-02-02T00:39:07.499Z,958.91
2023-02-02T00:39:18.517Z,958.92
2023-02-02T00:39:29.228Z,958.94
2023-02-02T00:39:40.275Z,958.91
2023-02-02T00:39:51.245Z,958.89
2023-02-02T00:40:02.015Z,958.93
2023-02-02T00:40:13.056Z,958.93
2023-02-02T00:40:24.022Z,958.92
2023-02-02T00:40:34.791Z,958.93
2023-02-02T00:40:45.842Z,958.85
2023-02-02T00:40:56.808Z,958.83
2023-02-02T00:41:07.608Z,958.84
2023-02-02T00:41:18.657Z,958.79
2023-02-02T00:41:29.592Z,958.78
2023-02-02T00:41:40.371Z,958.83
2023-02-02T00:41:51.400Z,958.93
2023-02-02T00:42:02.370Z,958.97
2023-02-02T00:42:13.139Z,958.91
2023-02-02T00:42:24.178Z,958.87
2023-02-02T00:42:35.150Z,958.89
2023-02-02T00:42:45.917Z,958.91
2023-02-02T00:42:56.982Z,958.92
2023-02-02T00:43:07.957Z,958.87
2023-02-02T00:43:18.748Z,958.93
2023-02-02T00:43:29.771Z,958.88
2023-02-02T00:43:40.746Z,958.91
2023-02-02T00:43:51.511Z,958.88
2023-02-02T00:44:02.556Z,958.85
2023-02-02T00:44:13.527Z,958.88
2023-02-02T00:44:24.297Z,958.81
2023-02-02T00:44:35.334Z,958.79
2023-02-02T00:44:46.308Z,958.85
2023-02-02T00:44:57.063Z,958.85
2023-02-02T00:45:08.121Z,958.87
2023-02-02T00:45:19.098Z,958.89
2023-02-02T00:45:29.958Z,958.91
2023-02-02T00:45:41.041Z,958.91
2023-02-02T00:45:52.075Z,958.92
2023-02-02T00:46:02.964Z,958.90
2023-02-02T00:46:13.966Z,958.86
2023-02-02T00:46:24.946Z,958.81
2023-02-02T00:46:35.709Z,958.83
2023-02-02T00:46:46.767Z,958.78
2023-02-02T00:46:57.758Z,958.80
2023-02-02T00:47:08.518Z,958.85
2023-02-02T00:47:19.569Z,958.87
2023-02-02T00:47:30.532Z,958.81
2023-02-02T00:47:41.299Z,958.81
2023-02-02T00:47:52.346Z,958.82
2023-02-02T00:48:03.314Z,958.87
2023-02-02T00:48:14.094Z,958.87
2023-02-02T00:48:25.141Z,958.81
2023-02-02T00:48:36.111Z,958.78
2023-02-02T00:48:46.881Z,958.78
2023-02-02T00:48:57.935Z,958.77
2023-02-02T00:49:08.906Z,958.81
2023-02-02T00:49:19.665Z,958.90
2023-02-02T00:49:30.729Z,958.88
2023-02-02T00:49:41.673Z,958.89
2023-02-02T00:49:52.449Z,958.82
2023-02-02T00:50:03.489Z,958.79
2023-02-02T00:50:14.472Z,958.85
2023-02-02T00:50:25.228Z,958.88
2023-02-02T00:50:36.286Z,958.89
2023-02-02T00:50:47.256Z,958.79
2023-02-02T00:50:58.031Z,958.84
2023-02-02T00:51:09.113Z,958.84
2023-02-02T00:51:20.039Z,958.89
2023-02-02T00:51:30.804Z,958.88
2023-02-02T00:51:41.859Z,958.85
2023-02-02T00:51:52.822Z,958.80
2023-02-02T00:52:03.598Z,958.83
2023-02-02T00:52:14.632Z,958.84
2023-02-02T00:52:25.610Z,958.81
2023-02-02T00:52:36.374Z,958.83
2023-02-02T00:52:47.411Z,958.85
2023-02-02T00:52:58.381Z,958.85
2023-02-02T00:53:09.138Z,958.85
2023-02-02T00:53:20.209Z,958.88
2023-02-02T00:53:31.167Z,958.72
2023-02-02T00:53:41.933Z,958.65
2023-02-02T00:53:52.997Z,958.66
2023-02-02T00:54:03.963Z,958.68
2023-02-02T00:54:14.727Z,958.69
2023-02-02T00:54:25.775Z,958.73
2023-02-02T00:54:36.740Z,958.69
2023-02-02T00:54:47.515Z,958.76
2023-02-02T00:54:58.560Z,958.79
2023-02-02T00:55:09.529Z,958.86
2023-02-02T00:55:20.289Z,958.91
2023-02-02T00:55:31.344Z,958.79
2023-02-02T00:55:42.303Z,958.72
2023-02-02T00:55:53.083Z,958.68
2023-02-02T00:56:04.126Z,958.67
2023-02-02T00:56:15.113Z,958.65
2023-02-02T00:56:25.865Z,958.69
2023-02-02T00:56:36.910Z,958.75
2023-02-02T00:56:47.882Z,958.79
2023-02-02T00:56:58.650Z,958.82
2023-02-02T00:57:09.687Z,958.83
2023-02-02T00:57:20.656Z,958.82
2023-02-02T00:57:31.418Z,958.83
2023-02-02T00:57:42.464Z,958.81
2023-02-02T00:57:53.431Z,958.81
2023-02-02T00:58:04.207Z,958.77
2023-02-02T00:58:15.246Z,958.75
2023-02-02T00:58:26.222Z,958.78
2023-02-02T00:58:36.992Z,958.80
2023-02-02T00:58:48.091Z,958.76
2023-02-02T00:58:59.069Z,958.76
2023-02-02T00:59:09.840Z,958.79
2023-02-02T00:59:20.879Z,958.79
2023-02-02T00:59:31.847Z,958.79
2023-02-02T00:59:42.615Z,958.81
2023-02-02T00:59:53.656Z,958.82
2023-02-02T01:00:04.633Z,958.81
2023-02-02T01:00:15.399Z,958.78
2023-02-02T01:00:26.456Z,958.77
2023-02-02T01:00:37.443Z,958.71
2023-02-02T01:00:48.274Z,958.72
2023-02-02T01:00:59.272Z,958.73
2023-02-02T01:01:10.282Z,958.74
2023-02-02T01:01:21.056Z,958.68
2023-02-02T01:01:32.045Z,958.71
2023-02-02T01:01:43.017Z,958.69
2023-02-02T01:01:53.848Z,958.68
2023-02-02T01:02:04.371Z,958.68
2023-02-02T01:02:15.310Z,958.72
2023-02-02T01:02:26.145Z,958.68
2023-02-02T01:02:36.643Z,958.72
2023-02-02T01:02:47.609Z,958.75
2023-02-02T01:02:58.373Z,958.71
2023-02-02T01:03:09.421Z,958.68
2023-02-02T01:03:20.387Z,958.71
2023-02-02T01:03:31.161Z,958.74
2023-02-02T01:03:42.204Z,958.77
2023-02-02T01:03:53.175Z,958.77
2023-02-02T01:04:03.961Z,958.75
2023-02-02T01:04:14.999Z,958.77
2023-02-02T01:04:25.972Z,958.74
2023-02-02T01:04:36.881Z,958.75
2023-02-02T01:04:47.924Z,958.79
2023-02-02T01:04:58.894Z,958.79
2023-02-02T01:05:09.700Z,958.73
2023-02-02T01:05:20.754Z,958.68
2023-02-02T01:05:31.694Z,958.72
2023-02-02T01:05:42.463Z,958.75
2023-02-02T01:05:53.505Z,958.78
2023-02-02T01:06:04.487Z,958.78
2023-02-02T01:06:15.236Z,958.78
2023-02-02T01:06:26.293Z,958.78
2023-02-02T01:06:37.257Z,958.74
2023-02-02T01:06:48.054Z,958.76
2023-02-02T01:06:59.100Z,958.86
2023-02-02T01:07:10.042Z,958.75
2023-02-02T01:07:20.807Z,958.80
2023-02-02T01:07:31.867Z,958.72
2023-02-02T01:07:42.837Z,958.70
2023-02-02T01:07:53.598Z,958.75
2023-02-02T01:08:04.634Z,958.71
2023-02-02T01:08:15.601Z,958.69
2023-02-02T01:08:26.370Z,958.71
2023-02-02T01:08:37.430Z,958.74
2023-02-02T01:08:48.393Z,958.72
2023-02-02T01:08:59.178Z,958.81
2023-02-02T01:09:10.227Z,958.76
2023-02-02T01:09:21.215Z,958.74
2023-02-02T01:09:31.977Z,958.77
2023-02-02T01:09:43.032Z,958.82
2023-02-02T01:09:54.001Z,958.79
2023-02-02T01:10:04.761Z,958.81
2023-02-02T01:10:15.811Z,958.80
2023-02-02T01:10:26.780Z,958.78
2023-02-02T01:10:37.544Z,958.75
2023-02-02T01:10:48.593Z,958.75
2023-02-02T01:10:59.564Z,958.72
2023-02-02T01:11:10.325Z,958.74
2023-02-02T01:11:21.401Z,958.70
2023-02-02T01:11:32.349Z,958.68
2023-02-02T01:11:43.116Z,958.72
2023-02-02T01:11:54.181Z,958.72
2023-02-02T01:12:05.157Z,958.67
2023-02-02T01:12:15.923Z,958.67
2023-02-02T01:12:26.971Z,958.72
2023-02-02T01:12:37.942Z,958.72
2023-02-02T01:12:48.738Z,958.78
2023-02-02T01:12:59.754Z,958.79
2023-02-02T01:13:10.718Z,958.69
2023-02-02T01:13:21.488Z,958.65
2023-02-02T01:13:32.539Z,958.65
2023-02-02T01:13:43.510Z,958.62
2023-02-02T01:13:54.300Z,958.65
2023-02-02T01:14:05.350Z,958.67
2023-02-02T01:14:16.320Z,958.65
2023-02-02T01:14:27.102Z,958.63
2023-02-02T01:14:38.164Z,958.66
2023-02-02T01:14:49.142Z,958.66
2023-02-02T01:14:59.906Z,958.66
2023-02-02T01:15:10.959Z,958.64
2023-02-02T01:15:22.210Z,958.65
2023-02-02T01:15:32.970Z,958.67
2023-02-02T01:15:44.028Z,958.67
2023-02-02T01:15:55.075Z,958.71
2023-02-02T01:16:05.868Z,958.81
2023-02-02T01:16:16.945Z,958.69
2023-02-02T01:16:27.934Z,958.58
2023-02-02T01:16:38.669Z,958.60
2023-02-02T01:16:49.761Z,958.64
2023-02-02T01:17:00.705Z,958.64
2023-02-02T01:17:11.464Z,958.59
2023-02-02T01:17:22.516Z,958.59
2023-02-02T01:17:33.485Z,958.69
2023-02-02T01:17:44.250Z,958.75
2023-02-02T01:17:55.302Z,958.62
2023-02-02T01:18:06.275Z,958.66
2023-02-02T01:18:17.024Z,958.61
2023-02-02T01:18:28.080Z,958.57
2023-02-02T01:18:39.055Z,958.58
2023-02-02T01:18:49.836Z,958.62
2023-02-02T01:19:00.883Z,958.66
2023-02-02T01:19:11.852Z,958.71
2023-02-02T01:19:22.635Z,958.72
2023-02-02T01:19:33.673Z,958.64
2023-02-02T01:19:44.645Z,958.56
2023-02-02T01:19:55.409Z,958.58
2023-02-02T01:20:06.477Z,958.63
2023-02-02T01:20:17.457Z,958.72
2023-02-02T01:20:28.213Z,958.71
2023-02-02T01:20:39.254Z,958.72
2023-02-02T01:20:50.224Z,958.75
2023-02-02T01:21:00.992Z,958.77
2023-02-02T01:21:12.046Z,958.69
2023-02-02T01:21:23.008Z,958.74
2023-02-02T01:21:33.788Z,958.74
2023-02-02T01:21:44.827Z,958.73
2023-02-02T01:21:55.800Z,958.73
2023-02-02T01:22:06.564Z,958.72
2023-02-02T01:22:17.618Z,958.73
2023-02-02T01:22:28.616Z,958.75
2023-02-02T01:22:39.355Z,958.72
2023-02-02T01:22:50.401Z,958.74
2023-02-02T01:23:01.371Z,958.73
2023-02-02T01:23:12.132Z,958.75
2023-02-02T01:23:23.191Z,958.76
2023-02-02T01:23:34.156Z,958.73
2023-02-02T01:23:44.929Z,958.70
2023-02-02T01:23:55.984Z,958.61
2023-02-02T01:24:06.946Z,958.63
2023-02-02T01:24:17.712Z,958.71
2023-02-02T01:24:28.783Z,958.71
2023-02-02T01:24:39.749Z,958.73
2023-02-02T01:24:50.523Z,958.76
2023-02-02T01:25:01.576Z,958.72
2023-02-02T01:25:12.540Z,958.65
2023-02-02T01:25:23.689Z,958.73
2023-02-02T01:25:34.322Z,958.76
2023-02-02T01:25:45.309Z,958.69
2023-02-02T01:25:56.079Z,958.71
2023-02-02T01:26:07.125Z,958.71
2023-02-02T01:26:18.192Z,958.77
2023-02-02T01:26:29.018Z,958.81
2023-02-02T01:26:40.050Z,958.74
2023-02-02T01:26:51.020Z,958.54
2023-02-02T01:27:01.778Z,958.40
2023-02-02T01:27:12.816Z,958.51
2023-02-02T01:27:23.779Z,958.64
2023-02-02T01:27:34.556Z,958.71
2023-02-02T01:27:45.618Z,958.75
2023-02-02T01:27:56.571Z,958.72
2023-02-02T01:28:07.337Z,958.72
2023-02-02T01:28:18.385Z,958.69
2023-02-02T01:28:29.353Z,958.73
2023-02-02T01:28:40.123Z,958.71
2023-02-02T01:28:51.169Z,958.68
2023-02-02T01:29:02.144Z,958.71
2023-02-02T01:29:12.908Z,958.75
2023-02-02T01:29:23.954Z,958.74
2023-02-02T01:29:34.934Z,958.77
2023-02-02T01:29:45.711Z,958.76
2023-02-02T01:29:56.754Z,958.71
2023-02-02T01:30:07.744Z,958.62
2023-02-02T01:30:18.503Z,958.66
2023-02-02T01:30:29.549Z,958.70
2023-02-02T01:30:40.554Z,958.72
2023-02-02T01:30:51.335Z,958.72
2023-02-02T01:31:02.384Z,958.68
2023-02-02T01:31:13.384Z,958.67
2023-02-02T01:31:24.175Z,958.69
2023-02-02T01:31:35.249Z,958.73
2023-02-02T01:31:46.239Z,958.63
2023-02-02T01:31:57.054Z,958.64
2023-02-02T01:32:07.514Z,958.62
2023-02-02T01:32:18.487Z,958.62
2023-02-02T01:32:29.258Z,958.61
2023-02-02T01:32:40.305Z,958.63
2023-02-02T01:32:51.276Z,958.62
2023-02-02T01:33:02.040Z,958.60
2023-02-02T01:33:13.085Z,958.60
2023-02-02T01:33:24.051Z,958.58
2023-02-02T01:33:34.829Z,958.58
2023-02-02T01:33:45.870Z,958.59
2023-02-02T01:33:56.842Z,958.61
2023-02-02T01:34:07.626Z,958.69
2023-02-02T01:34:18.674Z,958.69
2023-02-02T01:34:29.639Z,958.68
2023-02-02T01:34:40.416Z,958.65
2023-02-02T01:34:51.462Z,958.57
2023-02-02T01:35:02.435Z,958.53
2023-02-02T01:35:13.196Z,958.50
2023-02-02T01:35:24.602Z,958.55
2023-02-02T01:35:35.102Z,958.58
2023-02-02T01:35:45.867Z,958.59
2023-02-02T01:35:56.916Z,958.60
2023-02-02T01:36:07.893Z,958.59
2023-02-02T01:36:18.667Z,958.57
2023-02-02T01:36:29.710Z,958.58
2023-02-02T01:36:40.680Z,958.60
2023-02-02T01:36:51.444Z,958.59
2023-02-02T01:37:02.489Z,958.63
2023-02-02T01:37:13.459Z,958.62
2023-02-02T01:37:24.243Z,958.54
2023-02-02T01:37:35.287Z,958.49
2023-02-02T01:37:46.256Z,958.50
2023-02-02T01:37:57.027Z,958.48
2023-02-02T01:38:08.077Z,958.54
2023-02-02T01:38:19.072Z,958.50
2023-02-02T01:38:29.828Z,958.47
2023-02-02T01:38:40.899Z,958.52
2023-02-02T01:38:51.865Z,958.58
2023-02-02T01:39:02.637Z,958.57
2023-02-02T01:39:13.730Z,958.56
2023-02-02T01:39:24.703Z,958.60
2023-02-02T01:39:35.463Z,958.58
2023-02-02T01:39:46.525Z,958.61
2023-02-02T01:39:57.490Z,958.61
2023-02-02T01:40:08.251Z,958.56
2023-02-02T01:40:19.305Z,958.58
2023-02-02T01:40:30.271Z,958.60
2023-02-02T01:40:41.036Z,958.58
2023-02-02T01:40:52.098Z,958.58
2023-02-02T01:41:03.061Z,958.60
2023-02-02T01:41:13.852Z,958.55
2023-02-02T01:41:24.896Z,958.57
2023-02-02T01:41:35.869Z,958.53
2023-02-02T01:41:46.618Z,958.52
2023-02-02T01:41:57.659Z,958.56
2023-02-02T01:42:08.626Z,958.55
2023-02-02T01:42:19.391Z,958.54
2023-02-02T01:42:30.440Z,958.52
2023-02-02T01:42:41.410Z,958.54
2023-02-02T01:42:52.178Z,958.56
2023-02-02T01:43:03.225Z,958.54
2023-02-02T01:43:14.191Z,958.55
2023-02-02T01:43:24.965Z,958.55
2023-02-02T01:43:36.018Z,958.54
2023-02-02T01:43:47.005Z,958.56
2023-02-02T01:43:57.764Z,958.56
2023-02-02T01:44:08.816Z,958.57
2023-02-02T01:44:19.792Z,958.56
2023-02-02T01:44:30.563Z,958.56
2023-02-02T01:44:41.604Z,958.57
2023-02-02T01:44:52.589Z,958.62
2023-02-02T01:45:03.351Z,958.61
2023-02-02T01:45:14.394Z,958.58
2023-02-02T01:45:25.740Z,958.55
2023-02-02T01:45:36.035Z,958.54
2023-02-02T01:45:47.065Z,958.52
2023-02-02T01:45:58.036Z,958.54
2023-02-02T01:46:08.845Z,958.55
2023-02-02T01:46:19.850Z,958.55
2023-02-02T01:46:30.816Z,958.49
2023-02-02T01:46:41.593Z,958.48
2023-02-02T01:46:52.627Z,958.48
2023-02-02T01:47:03.608Z,958.39
2023-02-02T01:47:14.363Z,958.36
2023-02-02T01:47:25.415Z,958.32
2023-02-02T01:47:36.378Z,958.36
2023-02-02T01:47:47.139Z,958.46
2023-02-02T01:47:58.197Z,958.44
2023-02-02T01:48:09.163Z,958.44
2023-02-02T01:48:19.934Z,958.46
2023-02-02T01:48:31.004Z,958.48
2023-02-02T01:48:41.988Z,958.48
2023-02-02T01:48:52.749Z,958.46
2023-02-02T01:49:03.791Z,958.43
2023-02-02T01:49:14.762Z,958.44
2023-02-02T01:49:25.549Z,958.44
2023-02-02T01:49:36.591Z,958.42
2023-02-02T01:49:47.556Z,958.50
2023-02-02T01:49:58.339Z,958.49
2023-02-02T01:50:09.382Z,958.55
2023-02-02T01:50:20.363Z,958.52
2023-02-02T01:50:31.155Z,958.45
2023-02-02T01:50:42.167Z,958.37
2023-02-02T01:50:53.139Z,958.39
2023-02-02T01:51:03.909Z,958.43
2023-02-02T01:51:14.964Z,958.49
2023-02-02T01:51:25.930Z,958.53
2023-02-02T01:51:36.699Z,958.57
2023-02-02T01:51:47.740Z,958.61
2023-02-02T01:51:58.715Z,958.57
2023-02-02T01:52:09.475Z,958.46
2023-02-02T01:52:20.523Z,958.42
2023-02-02T01:52:31.489Z,958.42
2023-02-02T01:52:42.256Z,958.48
2023-02-02T01:52:53.704Z,958.44
2023-02-02T01:53:04.096Z,958.41
2023-02-02T01:53:14.856Z,958.42
2023-02-02T01:53:25.897Z,958.43
2023-02-02T01:53:36.869Z,958.48
2023-02-02T01:53:47.631Z,958.51
2023-02-02T01:53:58.688Z,958.47
2023-02-02T01:54:09.654Z,958.49
2023-02-02T01:54:20.423Z,958.44
2023-02-02T01:54:31.513Z,958.52
2023-02-02T01:54:42.482Z,958.49
2023-02-02T01:54:53.250Z,958.48
2023-02-02T01:55:04.306Z,958.52
2023-02-02T01:55:15.312Z,958.50
2023-02-02T01:55:26.242Z,958.51
2023-02-02T01:55:36.791Z,958.52
2023-02-02T01:55:47.759Z,958.50
2023-02-02T01:55:58.531Z,958.39
2023-02-02T01:56:09.578Z,958.45
2023-02-02T01:56:20.561Z,958.48
2023-02-02T01:56:31.309Z,958.48
2023-02-02T01:56:42.380Z,958.45
2023-02-02T01:56:53.340Z,958.43
2023-02-02T01:57:04.093Z,958.45
2023-02-02T01:57:15.139Z,958.45
2023-02-02T01:57:26.116Z,958.43
2023-02-02T01:57:36.870Z,958.45
2023-02-02T01:57:47.918Z,958.54
2023-02-02T01:57:58.888Z,958.56
2023-02-02T01:58:09.651Z,958.54
2023-02-02T01:58:20.706Z,958.47
2023-02-02T01:58:31.661Z,958.48
2023-02-02T01:58:42.443Z,958.44
2023-02-02T01:58:53.489Z,958.42
2023-02-02T01:59:04.467Z,958.45
2023-02-02T01:59:15.246Z,958.52
2023-02-02T01:59:26.297Z,958.50
2023-02-02T01:59:37.280Z,958.49
2023-02-02T01:59:48.057Z,958.49
2023-02-02T01:59:59.100Z,958.51
2023-02-02T02:00:10.110Z,958.56
2023-02-02T02:00:20.860Z,958.50
2023-02-02T02:00:31.922Z,958.48
2023-02-02T02:00:42.895Z,958.55
2023-02-02T02:00:53.667Z,958.48
2023-02-02T02:01:04.751Z,958.45
2023-02-02T02:01:15.809Z,958.46
2023-02-02T02:01:26.585Z,958.44
2023-02-02T02:01:37.706Z,958.51
2023-02-02T02:01:48.648Z,958.45
2023-02-02T02:01:59.400Z,958.45
2023-02-02T02:02:10.465Z,958.44
2023-02-02T02:02:21.475Z,958.46
2023-02-02T02:02:32.222Z,958.38
2023-02-02T02:02:43.299Z,958.38
2023-02-02T02:02:54.241Z,958.41
2023-02-02T02:03:05.001Z,958.40
2023-02-02T02:03:16.058Z,958.47
2023-02-02T02:03:27.017Z,958.51
2023-02-02T02:03:37.798Z,958.48
2023-02-02T02:03:48.860Z,958.46
2023-02-02T02:03:59.827Z,958.48
2023-02-02T02:04:10.594Z,958.55
2023-02-02T02:04:21.638Z,958.46
2023-02-02T02:04:32.606Z,958.37
2023-02-02T02:04:43.384Z,958.37
2023-02-02T02:04:54.432Z,958.44
2023-02-02T02:05:05.398Z,958.42
2023-02-02T02:05:16.177Z,958.49
2023-02-02T02:05:27.230Z,958.50
2023-02-02T02:05:38.195Z,958.49
2023-02-02T02:05:48.958Z,958.44
2023-02-02T02:06:00.026Z,958.36
2023-02-02T02:06:11.062Z,958.29
2023-02-02T02:06:21.827Z,958.38
2023-02-02T02:06:32.831Z,958.39
2023-02-02T02:06:43.796Z,958.31
2023-02-02T02:06:54.557Z,958.33
2023-02-02T02:07:05.612Z,958.37
2023-02-02T02:07:16.577Z,958.37
2023-02-02T02:07:27.343Z,958.34
2023-02-02T02:07:38.386Z,958.36
2023-02-02T02:07:49.413Z,958.41
2023-02-02T02:08:00.120Z,958.42
2023-02-02T02:08:11.170Z,958.38
2023-02-02T02:08:22.143Z,958.34
2023-02-02T02:08:32.920Z,958.29
2023-02-02T02:08:43.968Z,958.25
2023-02-02T02:08:54.935Z,958.26
2023-02-02T02:09:05.696Z,958.25
2023-02-02T02:09:16.745Z,958.30
2023-02-02T02:09:27.717Z,958.36
2023-02-02T02:09:38.479Z,958.33
2023-02-02T02:09:49.535Z,958.31
2023-02-02T02:10:00.508Z,958.32
2023-02-02T02:10:11.269Z,958.28
2023-02-02T02:10:22.323Z,958.32
2023-02-02T02:10:33.294Z,958.34
2023-02-02T02:10:44.068Z,958.29
2023-02-02T02:10:55.115Z,958.28
2023-02-02T02:11:06.096Z,958.30
2023-02-02T02:11:16.859Z,958.28
2023-02-02T02:11:27.910Z,958.26
2023-02-02T02:11:38.882Z,958.29
2023-02-02T02:11:49.676Z,958.29
2023-02-02T02:12:00.692Z,958.25
2023-02-02T02:12:11.664Z,958.26
2023-02-02T02:12:22.431Z,958.29
2023-02-02T02:12:33.476Z,958.30
2023-02-02T02:12:44.442Z,958.32
2023-02-02T02:12:55.213Z,958.31
2023-02-02T02:13:06.270Z,958.21
2023-02-02T02:13:17.235Z,958.17
2023-02-02T02:13:28.000Z,958.22
2023-02-02T02:13:39.050Z,958.29
2023-02-02T02:13:50.015Z,958.23
2023-02-02T02:14:00.794Z,958.25
2023-02-02T02:14:11.840Z,958.31
2023-02-02T02:14:22.811Z,958.32
2023-02-02T02:14:33.588Z,958.27
2023-02-02T02:14:44.625Z,958.26
2023-02-02T02:14:55.605Z,958.32
2023-02-02T02:15:06.374Z,958.33
2023-02-02T02:15:17.416Z,958.38
2023-02-02T02:15:28.394Z,958.33
2023-02-02T02:15:39.163Z,958.30
2023-02-02T02:15:50.215Z,958.28
2023-02-02T02:16:01.190Z,958.27
2023-02-02T02:16:12.104Z,958.30
2023-02-02T02:16:22.591Z,958.27